Time;durP1;ratioP1;P1;durP2;ratioP2;P2;SDS_P1;SDS_P2;PMS_P1;PMS_P2;Temp;Humidity;BMP_temperature;BMP_pressure;BME280_temperature;BME280_humidity;BME280_pressure;Samples;Min_cycle;Max_cycle;Signal;HPM_P1;HPM_P2
2023/07/09 00:01:38;;;;;;;;;8.00;7.00;;;;;;;;5054405;28;45459;-74
2023/07/09 00:04:04;;;;;;;;;7.50;6.50;;;;;;;;5045996;28;45305;-73
2023/07/09 00:06:29;;;;;;;;;8.25;7.75;;;;;;;;5050399;28;45418;-73
2023/07/09 00:08:54;;;;;;;;;5.00;5.00;;;;;;;;5039581;28;45455;-74
2023/07/09 00:11:19;;;;;;;;;7.25;7.25;;;;;;;;5051924;28;46234;-74
2023/07/09 00:13:45;;;;;;;;;7.00;7.00;;;;;;;;5042726;28;45510;-75
2023/07/09 00:16:14;;;;;;;;;6.00;6.00;;;;;;;;5045485;28;45332;-75
2023/07/09 00:18:40;;;;;;;;;7.00;7.00;;;;;;;;5051446;28;45392;-72
2023/07/09 00:21:05;;;;;;;;;8.75;6.00;;;;;;;;5039062;28;45432;-74
2023/07/09 00:23:30;;;;;;;;;7.00;6.25;;;;;;;;5050428;28;45468;-73
2023/07/09 00:25:56;;;;;;;;;8.50;7.50;;;;;;;;5045434;28;45465;-73
2023/07/09 00:28:21;;;;;;;;;7.25;7.25;;;;;;;;5039438;28;45359;-73
2023/07/09 00:30:47;;;;;;;;;8.25;6.75;;;;;;;;5060129;28;48337;-74
2023/07/09 00:33:14;;;;;;;;;7.75;7.75;;;;;;;;5072208;28;8788;-73
2023/07/09 00:35:42;;;;;;;;;8.75;7.00;;;;;;;;5071982;28;8744;-72
2023/07/09 00:38:15;;;;;;;;;8.75;7.00;;;;;;;;5072072;28;10201;-73
2023/07/09 00:40:46;;;;;;;;;8.50;7.50;;;;;;;;5068015;28;10380;-73
2023/07/09 00:43:14;;;;;;;;;10.00;8.00;;;;;;;;5071148;28;10272;-73
2023/07/09 00:45:39;;;;;;;;;7.50;6.25;;;;;;;;5069332;28;10341;-73
2023/07/09 00:48:06;;;;;;;;;7.00;7.00;;;;;;;;5072006;28;10418;-73
2023/07/09 00:50:50;;;;;;;;;6.75;6.75;;;;;;;;5072220;28;8780;-73
2023/07/09 00:53:34;;;;;;;;;9.75;8.00;;;;;;;;5071925;28;10314;-73
2023/07/09 00:56:03;;;;;;;;;6.50;6.50;;;;;;;;5070035;28;10253;-72
2023/07/09 00:58:29;;;;;;;;;7.75;6.25;;;;;;;;5072094;28;10088;-73
2023/07/09 01:00:56;;;;;;;;;7.75;7.00;;;;;;;;5071806;28;10384;-73
2023/07/09 01:03:27;;;;;;;;;7.25;7.25;;;;;;;;5071899;28;8781;-73
2023/07/09 01:05:55;;;;;;;;;7.25;6.50;;;;;;;;5071610;28;10233;-73
2023/07/09 01:08:20;;;;;;;;;8.25;8.25;;;;;;;;5071585;28;10228;-73
2023/07/09 01:10:46;;;;;;;;;6.75;6.75;;;;;;;;5071284;28;10299;-73
2023/07/09 01:13:11;;;;;;;;;7.25;7.25;;;;;;;;5071760;28;8815;-73
2023/07/09 01:15:37;;;;;;;;;7.50;6.00;;;;;;;;5071852;28;8819;-73
2023/07/09 01:18:03;;;;;;;;;7.50;6.75;;;;;;;;5072149;28;8741;-73
2023/07/09 01:20:28;;;;;;;;;8.25;7.00;;;;;;;;5071848;28;10272;-73
2023/07/09 01:22:54;;;;;;;;;7.00;7.00;;;;;;;;5072027;28;8784;-73
2023/07/09 01:25:20;;;;;;;;;7.75;5.25;;;;;;;;5070920;28;8745;-73
2023/07/09 01:27:47;;;;;;;;;7.25;7.25;;;;;;;;5062408;28;28279;-73
2023/07/09 01:30:14;;;;;;;;;7.00;5.75;;;;;;;;5064913;28;28455;-73
2023/07/09 01:32:45;;;;;;;;;7.50;6.00;;;;;;;;5053745;28;28450;-73
2023/07/09 01:35:11;;;;;;;;;7.00;6.00;;;;;;;;5028370;28;45483;-72
2023/07/09 01:37:37;;;;;;;;;5.25;5.25;;;;;;;;5035514;28;45434;-73
2023/07/09 01:40:04;;;;;;;;;8.00;8.00;;;;;;;;5034582;28;46278;-72
2023/07/09 01:42:30;;;;;;;;;7.00;7.00;;;;;;;;5035462;28;45332;-73
2023/07/09 01:44:55;;;;;;;;;5.00;5.00;;;;;;;;5056493;28;44801;-73
2023/07/09 01:47:23;;;;;;;;;7.75;7.00;;;;;;;;5053221;28;45327;-73
2023/07/09 01:49:49;;;;;;;;;5.00;5.00;;;;;;;;5071155;28;8777;-73
2023/07/09 01:52:16;;;;;;;;;8.75;7.50;;;;;;;;5071096;28;10190;-73
2023/07/09 01:54:41;;;;;;;;;9.75;7.00;;;;;;;;5070693;28;8768;-73
2023/07/09 01:57:33;;;;;;;;;8.25;7.50;;;;;;;;5070963;28;10187;-73
2023/07/09 01:59:59;;;;;;;;;9.25;6.75;;;;;;;;5069579;28;8847;-73
2023/07/09 02:02:25;;;;;;;;;10.50;10.25;;;;;;;;5070730;28;10175;-73
2023/07/09 02:04:51;;;;;;;;;13.00;12.75;;;;;;;;5070769;28;10374;-73
2023/07/09 02:07:16;;;;;;;;;14.75;13.75;;;;;;;;5070935;28;8823;-73
2023/07/09 02:09:42;;;;;;;;;12.25;12.25;;;;;;;;5070443;28;10509;-74
2023/07/09 02:12:08;;;;;;;;;15.00;12.00;;;;;;;;5070540;28;8800;-73
2023/07/09 02:14:33;;;;;;;;;17.00;16.00;;;;;;;;5070687;28;8800;-73
2023/07/09 02:16:58;;;;;;;;;11.25;10.25;;;;;;;;5070849;28;10490;-73
2023/07/09 02:19:23;;;;;;;;;14.00;13.50;;;;;;;;5070704;28;8807;-73
2023/07/09 02:21:49;;;;;;;;;13.75;10.00;;;;;;;;5070343;28;8823;-73
2023/07/09 02:24:14;;;;;;;;;11.25;10.75;;;;;;;;5073066;28;8841;-73
2023/07/09 02:26:39;;;;;;;;;11.00;11.00;;;;;;;;5074267;28;8842;-73
2023/07/09 02:29:04;;;;;;;;;10.00;8.50;;;;;;;;5074199;28;8796;-73
2023/07/09 02:31:30;;;;;;;;;8.50;8.50;;;;;;;;5073875;28;8785;-73
2023/07/09 02:33:56;;;;;;;;;4.50;4.50;;;;;;;;5074244;28;8895;-73
2023/07/09 02:36:21;;;;;;;;;9.25;8.50;;;;;;;;5074092;28;8862;-73
2023/07/09 02:38:46;;;;;;;;;9.00;9.00;;;;;;;;5073918;28;9616;-73
2023/07/09 02:41:11;;;;;;;;;8.75;8.75;;;;;;;;5073865;28;8800;-73
2023/07/09 02:43:37;;;;;;;;;8.00;8.00;;;;;;;;5073953;28;8800;-73
2023/07/09 02:46:02;;;;;;;;;9.00;9.00;;;;;;;;5072607;28;8811;-73
2023/07/09 02:48:28;;;;;;;;;7.75;7.75;;;;;;;;5073877;28;8777;-73
2023/07/09 02:50:53;;;;;;;;;6.75;6.75;;;;;;;;5073604;28;8808;-73
2023/07/09 02:53:18;;;;;;;;;8.00;6.25;;;;;;;;5073719;28;9571;-73
2023/07/09 02:55:43;;;;;;;;;7.25;7.25;;;;;;;;5073824;28;8796;-73
2023/07/09 02:58:08;;;;;;;;;6.50;6.50;;;;;;;;5073838;28;9607;-73
2023/07/09 03:00:34;;;;;;;;;5.25;5.25;;;;;;;;5073663;28;8820;-73
2023/07/09 03:02:59;;;;;;;;;8.75;7.75;;;;;;;;5073488;28;8921;-73
2023/07/09 03:05:24;;;;;;;;;4.25;4.25;;;;;;;;5073496;28;8804;-73
2023/07/09 03:07:49;;;;;;;;;7.25;6.50;;;;;;;;5073539;28;8835;-73
2023/07/09 03:10:15;;;;;;;;;6.50;6.50;;;;;;;;5073679;28;8792;-73
2023/07/09 03:12:41;;;;;;;;;7.75;6.75;;;;;;;;5071312;28;27829;-74
2023/07/09 03:15:06;;;;;;;;;6.50;6.50;;;;;;;;5029680;28;28302;-73
2023/07/09 03:17:31;;;;;;;;;6.00;6.00;;;;;;;;5033588;28;29312;-73
2023/07/09 03:19:57;;;;;;;;;3.50;3.50;;;;;;;;5031699;28;28484;-73
2023/07/09 03:22:22;;;;;;;;;7.50;6.00;;;;;;;;5033631;28;28402;-73
2023/07/09 03:24:47;;;;;;;;;8.00;7.00;;;;;;;;5033301;28;28509;-73
2023/07/09 03:27:12;;;;;;;;;8.00;6.50;;;;;;;;5033384;28;29224;-73
2023/07/09 03:29:37;;;;;;;;;7.25;7.25;;;;;;;;5032876;28;39466;-72
2023/07/09 03:32:03;;;;;;;;;6.25;6.25;;;;;;;;5052883;28;28399;-72
2023/07/09 03:34:28;;;;;;;;;4.00;4.00;;;;;;;;5051357;28;45411;-72
2023/07/09 03:36:53;;;;;;;;;7.00;6.00;;;;;;;;5058825;28;29309;-73
2023/07/09 03:39:18;;;;;;;;;6.00;6.00;;;;;;;;5068400;28;27775;-73
2023/07/09 03:41:44;;;;;;;;;7.50;7.00;;;;;;;;5065325;28;28347;-73
2023/07/09 03:44:09;;;;;;;;;7.00;7.00;;;;;;;;5073257;28;9141;-73
2023/07/09 03:46:34;;;;;;;;;7.00;7.00;;;;;;;;5052169;28;45517;-73
2023/07/09 03:48:59;;;;;;;;;8.50;7.25;;;;;;;;5072941;28;8807;-73
2023/07/09 03:51:25;;;;;;;;;7.00;6.00;;;;;;;;5072979;28;8780;-73
2023/07/09 03:53:50;;;;;;;;;7.00;7.00;;;;;;;;5072918;28;8796;-73
2023/07/09 03:56:15;;;;;;;;;10.50;7.75;;;;;;;;5073060;28;8780;-73
2023/07/09 03:58:40;;;;;;;;;6.00;6.00;;;;;;;;5071303;28;8880;-73
2023/07/09 04:01:05;;;;;;;;;6.25;6.00;;;;;;;;5072576;28;8820;-73
2023/07/09 04:03:31;;;;;;;;;6.25;6.25;;;;;;;;5072642;28;8800;-73
2023/07/09 04:05:56;;;;;;;;;6.00;6.00;;;;;;;;5072814;28;8816;-73
2023/07/09 04:08:21;;;;;;;;;8.00;7.75;;;;;;;;5071426;28;8796;-73
2023/07/09 04:10:46;;;;;;;;;7.00;5.50;;;;;;;;5072526;28;8820;-74
2023/07/09 04:13:12;;;;;;;;;5.75;5.75;;;;;;;;5072485;28;9557;-73
2023/07/09 04:15:37;;;;;;;;;7.00;7.00;;;;;;;;5072953;28;8788;-72
2023/07/09 04:18:02;;;;;;;;;6.25;6.25;;;;;;;;5072058;28;8981;-73
2023/07/09 04:20:28;;;;;;;;;7.25;6.00;;;;;;;;5072364;28;8812;-73
2023/07/09 04:22:53;;;;;;;;;5.50;5.00;;;;;;;;5072548;28;8832;-73
2023/07/09 04:25:18;;;;;;;;;5.00;5.00;;;;;;;;5071637;28;24203;-73
2023/07/09 04:27:44;;;;;;;;;5.75;5.75;;;;;;;;5072317;28;8820;-73
2023/07/09 04:30:10;;;;;;;;;7.00;5.50;;;;;;;;5072301;28;8911;-73
2023/07/09 04:32:37;;;;;;;;;4.00;4.00;;;;;;;;5072048;28;8752;-73
2023/07/09 04:35:02;;;;;;;;;6.00;6.00;;;;;;;;5072428;28;10401;-73
2023/07/09 04:37:27;;;;;;;;;7.25;5.50;;;;;;;;5071924;28;10106;-73
2023/07/09 04:39:53;;;;;;;;;8.50;6.25;;;;;;;;5072207;28;8818;-73
2023/07/09 04:42:18;;;;;;;;;5.75;5.50;;;;;;;;5072246;28;8800;-73
2023/07/09 04:44:44;;;;;;;;;7.00;7.00;;;;;;;;5069765;28;32588;-73
2023/07/09 04:47:09;;;;;;;;;6.00;6.00;;;;;;;;5055614;28;45312;-73
2023/07/09 04:49:35;;;;;;;;;5.00;5.00;;;;;;;;5052059;28;28378;-73
2023/07/09 04:52:00;;;;;;;;;5.00;5.00;;;;;;;;5051964;28;28441;-73
2023/07/09 04:54:26;;;;;;;;;7.50;6.25;;;;;;;;5051960;28;29099;-73
2023/07/09 04:56:52;;;;;;;;;7.25;6.25;;;;;;;;5052106;28;28427;-73
2023/07/09 04:59:18;;;;;;;;;8.50;8.00;;;;;;;;5051915;28;28253;-73
2023/07/09 05:01:43;;;;;;;;;7.75;6.75;;;;;;;;5051645;28;28221;-73
2023/07/09 05:04:08;;;;;;;;;9.25;7.00;;;;;;;;5051739;28;28369;-73
2023/07/09 05:06:34;;;;;;;;;5.00;5.00;;;;;;;;5051867;28;28468;-72
2023/07/09 05:08:59;;;;;;;;;8.25;8.25;;;;;;;;5037207;28;45229;-72
2023/07/09 05:11:24;;;;;;;;;9.00;8.00;;;;;;;;5036201;28;45230;-72
2023/07/09 05:13:49;;;;;;;;;5.00;5.00;;;;;;;;5047191;28;45199;-73
2023/07/09 05:16:15;;;;;;;;;5.25;5.25;;;;;;;;5051759;28;28438;-73
2023/07/09 05:18:40;;;;;;;;;6.50;5.50;;;;;;;;5051641;28;28340;-73
2023/07/09 05:21:05;;;;;;;;;8.75;7.25;;;;;;;;5052998;28;28326;-73
2023/07/09 05:23:30;;;;;;;;;6.00;5.75;;;;;;;;5052491;28;28362;-73
2023/07/09 05:25:56;;;;;;;;;6.00;6.00;;;;;;;;5051357;28;43127;-72
2023/07/09 05:28:21;;;;;;;;;6.00;6.00;;;;;;;;5050263;28;28341;-73
2023/07/09 05:30:47;;;;;;;;;7.00;5.75;;;;;;;;5052068;28;28566;-72
2023/07/09 05:33:12;;;;;;;;;5.25;5.25;;;;;;;;5051950;28;28498;-72
2023/07/09 05:35:37;;;;;;;;;7.00;7.00;;;;;;;;5050861;28;28510;-73
2023/07/09 05:38:02;;;;;;;;;6.00;6.00;;;;;;;;5052130;28;28446;-72
2023/07/09 05:40:27;;;;;;;;;5.00;5.00;;;;;;;;5051532;28;44740;-73
2023/07/09 05:42:53;;;;;;;;;7.25;6.50;;;;;;;;5050714;28;28468;-72
2023/07/09 05:45:18;;;;;;;;;6.50;5.50;;;;;;;;5050963;28;28478;-72
2023/07/09 05:47:43;;;;;;;;;5.25;5.00;;;;;;;;5050356;28;44704;-72
2023/07/09 05:50:08;;;;;;;;;6.25;6.25;;;;;;;;5051082;28;28465;-73
2023/07/09 05:52:34;;;;;;;;;6.50;6.00;;;;;;;;5050122;28;46600;-73
2023/07/09 05:54:59;;;;;;;;;6.50;6.50;;;;;;;;5051089;28;28477;-72
2023/07/09 05:57:24;;;;;;;;;8.50;7.25;;;;;;;;5051066;28;28723;-72
2023/07/09 05:59:50;;;;;;;;;6.75;6.50;;;;;;;;5049479;28;28643;-72
2023/07/09 06:02:16;;;;;;;;;6.50;5.25;;;;;;;;5050697;28;28437;-73
2023/07/09 06:04:42;;;;;;;;;7.00;7.00;;;;;;;;5051000;28;28490;-72
2023/07/09 06:07:07;;;;;;;;;4.00;4.00;;;;;;;;5051614;28;28442;-73
2023/07/09 06:09:32;;;;;;;;;6.50;5.25;;;;;;;;5050128;28;42963;-73
2023/07/09 06:11:58;;;;;;;;;5.25;4.00;;;;;;;;5049645;28;45417;-72
2023/07/09 06:14:24;;;;;;;;;10.75;6.25;;;;;;;;5050846;28;27854;-72
2023/07/09 06:16:49;;;;;;;;;6.25;5.00;;;;;;;;5050973;28;28526;-72
2023/07/09 06:19:14;;;;;;;;;5.00;5.00;;;;;;;;5050674;28;28547;-72
2023/07/09 06:21:40;;;;;;;;;6.00;6.00;;;;;;;;5050761;28;28419;-72
2023/07/09 06:24:05;;;;;;;;;7.25;7.00;;;;;;;;5050528;28;28461;-72
2023/07/09 06:26:30;;;;;;;;;5.00;5.00;;;;;;;;5050813;28;28506;-73
2023/07/09 06:28:56;;;;;;;;;6.75;6.75;;;;;;;;5050040;28;28347;-72
2023/07/09 06:31:21;;;;;;;;;6.00;5.25;;;;;;;;5059065;28;28399;-73
2023/07/09 06:33:47;;;;;;;;;7.75;6.50;;;;;;;;5043595;28;45347;-73
2023/07/09 06:36:13;;;;;;;;;4.50;4.50;;;;;;;;5034980;28;45438;-72
2023/07/09 06:38:38;;;;;;;;;7.00;6.00;;;;;;;;5034851;28;45415;-71
2023/07/09 06:41:04;;;;;;;;;5.50;5.50;;;;;;;;5034580;28;47142;-71
2023/07/09 06:43:29;;;;;;;;;7.00;7.00;;;;;;;;5034444;28;45364;-71
2023/07/09 06:45:56;;;;;;;;;6.25;6.00;;;;;;;;5034701;28;45410;-71
2023/07/09 06:48:22;;;;;;;;;6.00;6.00;;;;;;;;5034883;28;45384;-71
2023/07/09 06:50:47;;;;;;;;;5.00;5.00;;;;;;;;5034453;28;47149;-71
2023/07/09 06:53:12;;;;;;;;;5.75;5.75;;;;;;;;5034454;28;45331;-71
2023/07/09 06:55:37;;;;;;;;;5.00;5.00;;;;;;;;5034625;28;45300;-71
2023/07/09 06:58:03;;;;;;;;;5.00;5.00;;;;;;;;5034475;28;45256;-71
2023/07/09 07:00:28;;;;;;;;;6.00;4.25;;;;;;;;5034493;28;46024;-71
2023/07/09 07:02:53;;;;;;;;;5.25;5.25;;;;;;;;5032786;28;45369;-71
2023/07/09 07:05:18;;;;;;;;;5.75;5.75;;;;;;;;5034609;28;45234;-71
2023/07/09 07:07:44;;;;;;;;;5.00;4.75;;;;;;;;5034618;28;45489;-71
2023/07/09 07:10:09;;;;;;;;;5.00;4.50;;;;;;;;5036368;28;46118;-71
2023/07/09 07:12:43;;;;;;;;;8.00;6.75;;;;;;;;5037192;28;45249;-71
2023/07/09 07:15:08;;;;;;;;;7.00;7.00;;;;;;;;5037926;28;45317;-70
2023/07/09 07:17:34;;;;;;;;;6.50;5.25;;;;;;;;5037552;28;45579;-70
2023/07/09 07:19:59;;;;;;;;;5.75;5.75;;;;;;;;5037370;28;47048;-70
2023/07/09 07:22:24;;;;;;;;;6.00;5.25;;;;;;;;5037534;28;45472;-70
2023/07/09 07:24:50;;;;;;;;;5.50;5.50;;;;;;;;5036550;28;45463;-69
2023/07/09 07:27:16;;;;;;;;;6.75;6.75;;;;;;;;5035963;28;45336;-70
2023/07/09 07:29:41;;;;;;;;;6.25;5.25;;;;;;;;5037501;28;45431;-70
2023/07/09 07:32:07;;;;;;;;;8.00;6.75;;;;;;;;5037473;28;45265;-70
2023/07/09 07:34:32;;;;;;;;;4.75;4.75;;;;;;;;5036454;28;45576;-70
2023/07/09 07:36:57;;;;;;;;;5.75;5.75;;;;;;;;5037768;28;45599;-72
2023/07/09 07:39:22;;;;;;;;;6.75;5.75;;;;;;;;5037270;28;45556;-72
2023/07/09 07:41:47;;;;;;;;;2.00;2.00;;;;;;;;5036816;28;45385;-72
2023/07/09 07:44:12;;;;;;;;;7.00;5.25;;;;;;;;5037140;28;45391;-72
2023/07/09 07:46:38;;;;;;;;;5.75;4.75;;;;;;;;5037395;28;45289;-72
2023/07/09 07:49:03;;;;;;;;;6.00;4.00;;;;;;;;5037327;28;45399;-72
2023/07/09 07:51:28;;;;;;;;;5.00;5.00;;;;;;;;5036972;28;45324;-72
2023/07/09 07:53:55;;;;;;;;;5.25;5.25;;;;;;;;5037011;28;45422;-72
2023/07/09 07:56:20;;;;;;;;;5.00;4.25;;;;;;;;5037139;28;45425;-72
2023/07/09 07:58:45;;;;;;;;;4.50;4.50;;;;;;;;5037017;28;46096;-72
2023/07/09 08:01:11;;;;;;;;;4.00;4.00;;;;;;;;5036855;28;45378;-71
2023/07/09 08:03:36;;;;;;;;;6.25;6.25;;;;;;;;5037028;28;45346;-72
2023/07/09 08:06:01;;;;;;;;;5.00;5.00;;;;;;;;5035453;28;45508;-74
2023/07/09 08:08:26;;;;;;;;;6.00;5.00;;;;;;;;5037057;28;45824;-72
2023/07/09 08:10:59;;;;;;;;;6.25;5.75;;;;;;;;5018835;28;46269;-72
2023/07/09 08:13:24;;;;;;;;;5.00;5.00;;;;;;;;5036757;28;45893;-72
2023/07/09 08:15:49;;;;;;;;;5.25;5.25;;;;;;;;5036935;28;45499;-72
2023/07/09 08:18:15;;;;;;;;;4.00;4.00;;;;;;;;5036476;28;46111;-72
2023/07/09 08:20:42;;;;;;;;;7.00;7.00;;;;;;;;5035520;28;45596;-73
2023/07/09 08:23:07;;;;;;;;;6.00;6.00;;;;;;;;5036853;28;45376;-73
2023/07/09 08:25:33;;;;;;;;;6.50;6.00;;;;;;;;5036522;28;45446;-73
2023/07/09 08:27:58;;;;;;;;;9.00;7.00;;;;;;;;5036557;28;46046;-72
2023/07/09 08:30:23;;;;;;;;;9.50;7.50;;;;;;;;5036528;28;45328;-72
2023/07/09 08:32:48;;;;;;;;;5.75;4.75;;;;;;;;5036563;28;46379;-72
2023/07/09 08:35:15;;;;;;;;;4.00;4.00;;;;;;;;5036659;28;45391;-72
2023/07/09 08:37:40;;;;;;;;;5.50;5.25;;;;;;;;5036222;28;47073;-73
2023/07/09 08:40:09;;;;;;;;;5.00;5.00;;;;;;;;5036078;28;45374;-73
2023/07/09 08:42:41;;;;;;;;;6.00;5.00;;;;;;;;5036598;28;45491;-73
2023/07/09 08:45:35;;;;;;;;;3.50;3.50;;;;;;;;5036499;28;45376;-73
2023/07/09 08:48:05;;;;;;;;;6.00;6.00;;;;;;;;4974341;28;45460;-73
2023/07/09 08:50:39;;;;;;;;;4.25;3.50;;;;;;;;4974390;28;45456;-72
2023/07/09 08:53:06;;;;;;;;;5.75;5.25;;;;;;;;4974362;28;45851;-73
2023/07/09 08:55:39;;;;;;;;;3.50;3.50;;;;;;;;4974485;28;45408;-73
2023/07/09 08:58:09;;;;;;;;;4.50;4.50;;;;;;;;4959222;28;46293;-73
2023/07/09 09:00:45;;;;;;;;;6.00;6.00;;;;;;;;4974234;28;45399;-73
2023/07/09 09:03:13;;;;;;;;;6.75;5.00;;;;;;;;4974258;28;46482;-72
2023/07/09 09:05:41;;;;;;;;;6.50;6.00;;;;;;;;4974518;28;45507;-72
2023/07/09 09:08:22;;;;;;;;;4.00;4.00;;;;;;;;4974022;28;46225;-73
2023/07/09 09:10:53;;;;;;;;;7.25;7.25;;;;;;;;4974084;28;45558;-71
2023/07/09 09:13:20;;;;;;;;;6.50;6.50;;;;;;;;4974242;28;45367;-71
2023/07/09 09:15:46;;;;;;;;;7.75;7.25;;;;;;;;4974577;28;45627;-71
2023/07/09 09:18:17;;;;;;;;;5.00;4.25;;;;;;;;4976233;28;46148;-73
2023/07/09 09:20:55;;;;;;;;;7.25;7.25;;;;;;;;4973998;28;45495;-73
2023/07/09 09:23:21;;;;;;;;;7.00;7.00;;;;;;;;4961089;28;45305;-71
2023/07/09 09:25:52;;;;;;;;;7.00;7.00;;;;;;;;5035863;28;45209;-73
2023/07/09 09:28:18;;;;;;;;;7.25;6.25;;;;;;;;5035497;28;46284;-73
2023/07/09 09:30:43;;;;;;;;;5.50;5.50;;;;;;;;5035351;28;45393;-73
2023/07/09 09:33:09;;;;;;;;;3.25;3.25;;;;;;;;5035470;28;45436;-73
2023/07/09 09:35:39;;;;;;;;;6.00;5.00;;;;;;;;5034143;28;45595;-73
2023/07/09 09:38:16;;;;;;;;;6.25;6.25;;;;;;;;5035567;28;45437;-73
2023/07/09 09:40:41;;;;;;;;;6.00;5.75;;;;;;;;5035483;28;45492;-73
2023/07/09 09:43:13;;;;;;;;;5.25;4.75;;;;;;;;5034629;28;45403;-73
2023/07/09 09:45:39;;;;;;;;;7.00;5.75;;;;;;;;5036418;28;45433;-73
2023/07/09 09:48:16;;;;;;;;;7.25;7.25;;;;;;;;5036110;28;47040;-73
2023/07/09 09:50:42;;;;;;;;;7.25;6.25;;;;;;;;5036188;28;45409;-73
2023/07/09 09:53:08;;;;;;;;;9.00;8.00;;;;;;;;5034268;28;45757;-73
2023/07/09 09:55:33;;;;;;;;;6.50;6.50;;;;;;;;5035129;28;45442;-71
2023/07/09 09:57:59;;;;;;;;;6.00;5.25;;;;;;;;5034937;28;45799;-73
2023/07/09 10:00:25;;;;;;;;;5.00;5.00;;;;;;;;5035414;28;45396;-72
2023/07/09 10:02:56;;;;;;;;;9.00;8.00;;;;;;;;5034530;28;45423;-73
2023/07/09 10:05:25;;;;;;;;;9.00;9.00;;;;;;;;5034004;28;45431;-73
2023/07/09 10:07:56;;;;;;;;;7.50;6.25;;;;;;;;5033974;28;47251;-73
2023/07/09 10:10:24;;;;;;;;;8.00;8.00;;;;;;;;5033483;28;45603;-73
2023/07/09 10:12:52;;;;;;;;;6.75;6.75;;;;;;;;5034554;28;45399;-73
2023/07/09 10:15:24;;;;;;;;;9.00;8.00;;;;;;;;5034864;28;45362;-73
2023/07/09 10:18:12;;;;;;;;;7.00;7.00;;;;;;;;5035043;28;46090;-74
2023/07/09 10:20:44;;;;;;;;;10.00;8.25;;;;;;;;5034591;28;45447;-74
2023/07/09 10:23:09;;;;;;;;;13.75;13.50;;;;;;;;5035329;28;45402;-74
2023/07/09 10:25:49;;;;;;;;;8.00;8.00;;;;;;;;5035519;28;45324;-76
2023/07/09 10:28:34;;;;;;;;;12.00;10.25;;;;;;;;5034725;28;47163;-74
2023/07/09 10:31:11;;;;;;;;;11.50;8.75;;;;;;;;5035230;28;45336;-75
2023/07/09 10:33:59;;;;;;;;;11.25;9.25;;;;;;;;5035179;28;45442;-74
2023/07/09 10:36:30;;;;;;;;;6.00;6.00;;;;;;;;4973406;28;45289;-75
2023/07/09 10:39:05;;;;;;;;;6.75;6.75;;;;;;;;4973726;28;47381;-75
2023/07/09 10:41:31;;;;;;;;;8.75;8.75;;;;;;;;4973728;28;45535;-74
2023/07/09 10:43:59;;;;;;;;;9.75;9.00;;;;;;;;4975734;28;45384;-73
2023/07/09 10:46:26;;;;;;;;;9.75;8.00;;;;;;;;4977781;28;45578;-74
2023/07/09 10:48:53;;;;;;;;;10.75;6.75;;;;;;;;4977711;28;46164;-73
2023/07/09 10:51:32;;;;;;;;;8.25;8.25;;;;;;;;4977249;28;45394;-74
2023/07/09 10:54:00;;;;;;;;;12.25;9.25;;;;;;;;4976866;28;45365;-74
2023/07/09 10:56:31;;;;;;;;;11.50;9.50;;;;;;;;4976304;28;45468;-74
2023/07/09 10:59:15;;;;;;;;;6.25;6.25;;;;;;;;4976296;28;45576;-74
2023/07/09 11:01:46;;;;;;;;;7.00;7.00;;;;;;;;4975965;28;45409;-74
2023/07/09 11:04:13;;;;;;;;;9.00;8.75;;;;;;;;4976050;28;45524;-75
2023/07/09 11:06:41;;;;;;;;;8.25;6.50;;;;;;;;4976130;28;45544;-75
2023/07/09 11:09:27;;;;;;;;;7.00;7.00;;;;;;;;4975887;28;45373;-74
2023/07/09 11:11:54;;;;;;;;;6.00;6.00;;;;;;;;4975588;28;45322;-74
2023/07/09 11:14:26;;;;;;;;;8.00;8.00;;;;;;;;5030016;28;45256;-75
2023/07/09 11:16:53;;;;;;;;;10.00;8.50;;;;;;;;5037667;28;45335;-74
2023/07/09 11:19:20;;;;;;;;;6.25;6.25;;;;;;;;5037264;28;46146;-75
2023/07/09 11:21:58;;;;;;;;;6.25;6.00;;;;;;;;5037581;28;45342;-75
2023/07/09 11:24:34;;;;;;;;;7.00;7.00;;;;;;;;5036574;28;45512;-75
2023/07/09 11:27:00;;;;;;;;;7.50;7.50;;;;;;;;5037545;28;45458;-75
2023/07/09 11:29:26;;;;;;;;;6.00;6.00;;;;;;;;5037295;28;46300;-74
2023/07/09 11:31:52;;;;;;;;;8.00;8.00;;;;;;;;5037111;28;45340;-75
2023/07/09 11:34:19;;;;;;;;;4.50;4.50;;;;;;;;5037454;28;45250;-73
2023/07/09 11:36:50;;;;;;;;;4.25;4.25;;;;;;;;5037734;28;45224;-74
2023/07/09 11:39:22;;;;;;;;;5.00;4.75;;;;;;;;5037272;28;46060;-74
2023/07/09 11:41:48;;;;;;;;;3.50;2.25;;;;;;;;5037349;28;45352;-74
2023/07/09 11:44:16;;;;;;;;;4.50;4.00;;;;;;;;5037235;28;45397;-74
2023/07/09 11:47:02;;;;;;;;;6.00;5.00;;;;;;;;5037268;28;45557;-74
2023/07/09 11:49:30;;;;;;;;;4.00;4.00;;;;;;;;5026130;28;46692;-74
2023/07/09 11:52:00;;;;;;;;;4.25;4.00;;;;;;;;5036921;28;45201;-74
2023/07/09 11:54:25;;;;;;;;;4.00;4.00;;;;;;;;5035868;28;45497;-74
2023/07/09 11:56:57;;;;;;;;;5.00;3.25;;;;;;;;5036944;28;45488;-74
2023/07/09 11:59:23;;;;;;;;;4.00;4.00;;;;;;;;5037223;28;47013;-74
2023/07/09 12:01:51;;;;;;;;;6.00;5.00;;;;;;;;5036645;28;45387;-74
2023/07/09 12:04:17;;;;;;;;;8.75;5.25;;;;;;;;5037143;28;45345;-74
2023/07/09 12:06:44;;;;;;;;;7.75;5.75;;;;;;;;5037054;28;45307;-74
2023/07/09 12:09:14;;;;;;;;;4.00;4.00;;;;;;;;5036772;28;45320;-74
2023/07/09 12:11:42;;;;;;;;;6.75;5.50;;;;;;;;5035354;28;45356;-74
2023/07/09 12:14:18;;;;;;;;;10.00;9.50;;;;;;;;5015886;28;45472;-73
2023/07/09 12:16:47;;;;;;;;;12.00;12.00;;;;;;;;5016865;28;45434;-75
2023/07/09 12:19:14;;;;;;;;;5.75;5.75;;;;;;;;5016688;28;45585;-73
2023/07/09 12:21:41;;;;;;;;;2.25;2.25;;;;;;;;5016568;28;45395;-73
2023/07/09 12:24:24;;;;;;;;;9.75;9.75;;;;;;;;5016656;28;45415;-74
2023/07/09 12:26:51;;;;;;;;;7.75;6.75;;;;;;;;5016485;28;45309;-73
2023/07/09 12:29:16;;;;;;;;;16.75;15.75;;;;;;;;5016559;28;45422;-73
2023/07/09 12:31:41;;;;;;;;;6.25;6.25;;;;;;;;5032651;28;45406;-73
2023/07/09 12:34:11;;;;;;;;;4.00;4.00;;;;;;;;5036538;28;45450;-73
2023/07/09 12:36:38;;;;;;;;;4.50;4.00;;;;;;;;5036614;28;45516;-73
2023/07/09 12:39:03;;;;;;;;;4.00;4.00;;;;;;;;5036472;28;45598;-73
2023/07/09 12:41:33;;;;;;;;;8.00;5.00;;;;;;;;5036134;28;45402;-73
2023/07/09 12:43:58;;;;;;;;;4.00;4.00;;;;;;;;5036523;28;45340;-73
2023/07/09 12:46:24;;;;;;;;;4.75;4.75;;;;;;;;5036323;28;45456;-73
2023/07/09 12:48:52;;;;;;;;;5.75;4.00;;;;;;;;5036450;28;45280;-73
2023/07/09 12:51:21;;;;;;;;;5.75;4.50;;;;;;;;5036167;28;45426;-74
2023/07/09 12:53:47;;;;;;;;;3.00;3.00;;;;;;;;5036283;28;45492;-72
2023/07/09 12:56:14;;;;;;;;;2.75;2.75;;;;;;;;5036257;28;45582;-73
2023/07/09 12:58:39;;;;;;;;;3.75;2.25;;;;;;;;5035882;28;46478;-73
2023/07/09 13:01:06;;;;;;;;;3.25;3.25;;;;;;;;5034284;28;45384;-73
2023/07/09 13:03:32;;;;;;;;;3.00;3.00;;;;;;;;5035985;28;45382;-73
2023/07/09 13:05:59;;;;;;;;;3.25;3.25;;;;;;;;5035934;28;45316;-73
2023/07/09 13:08:28;;;;;;;;;3.00;3.00;;;;;;;;5035215;28;45606;-73
2023/07/09 13:10:54;;;;;;;;;2.00;2.00;;;;;;;;5036096;28;45328;-73
2023/07/09 13:13:21;;;;;;;;;3.25;3.25;;;;;;;;5035972;28;45316;-73
2023/07/09 13:15:51;;;;;;;;;3.75;2.75;;;;;;;;5036118;28;45277;-73
2023/07/09 13:18:16;;;;;;;;;2.50;2.50;;;;;;;;5034409;28;47263;-73
2023/07/09 13:20:43;;;;;;;;;4.00;4.00;;;;;;;;5035500;28;45510;-73
2023/07/09 13:23:09;;;;;;;;;3.25;3.25;;;;;;;;5036077;28;45375;-73
2023/07/09 13:25:36;;;;;;;;;3.00;3.00;;;;;;;;5035474;28;46109;-72
2023/07/09 13:28:01;;;;;;;;;4.00;3.00;;;;;;;;5035701;28;47222;-72
2023/07/09 13:30:26;;;;;;;;;4.25;4.25;;;;;;;;5035248;28;45567;-72
2023/07/09 13:32:51;;;;;;;;;4.00;1.25;;;;;;;;5034296;28;45446;-73
2023/07/09 13:35:18;;;;;;;;;1.50;1.50;;;;;;;;5035848;28;45457;-73
2023/07/09 13:37:45;;;;;;;;;2.25;1.00;;;;;;;;5035812;28;46178;-73
2023/07/09 13:40:14;;;;;;;;;2.75;2.75;;;;;;;;5035518;28;45451;-74
2023/07/09 13:42:41;;;;;;;;;2.75;2.75;;;;;;;;5035823;28;45388;-73
2023/07/09 13:45:10;;;;;;;;;2.25;2.25;;;;;;;;5035280;28;45249;-73
2023/07/09 13:47:35;;;;;;;;;2.75;2.75;;;;;;;;5033748;28;45526;-74
2023/07/09 13:50:01;;;;;;;;;3.00;1.00;;;;;;;;5033969;28;45502;-73
2023/07/09 13:52:26;;;;;;;;;3.25;3.25;;;;;;;;5035443;28;45468;-74
2023/07/09 13:54:52;;;;;;;;;1.75;1.75;;;;;;;;5035319;28;45475;-73
2023/07/09 13:57:19;;;;;;;;;1.75;1.75;;;;;;;;5035029;28;45587;-73
2023/07/09 13:59:44;;;;;;;;;3.25;3.00;;;;;;;;5035150;28;45379;-73
2023/07/09 14:02:18;;;;;;;;;2.25;1.00;;;;;;;;5034733;28;45395;-73
2023/07/09 14:04:44;;;;;;;;;3.00;2.00;;;;;;;;5035224;28;45404;-73
2023/07/09 14:07:21;;;;;;;;;4.00;2.75;;;;;;;;5035027;28;46284;-73
2023/07/09 14:09:46;;;;;;;;;2.00;2.00;;;;;;;;5035233;28;45272;-73
2023/07/09 14:12:11;;;;;;;;;3.00;3.00;;;;;;;;5034771;28;45310;-72
2023/07/09 14:14:37;;;;;;;;;1.00;1.00;;;;;;;;5035089;28;45478;-73
2023/07/09 14:17:02;;;;;;;;;2.00;2.00;;;;;;;;5035174;28;45829;-73
2023/07/09 14:19:28;;;;;;;;;2.25;2.25;;;;;;;;5036511;28;45446;-73
2023/07/09 14:21:53;;;;;;;;;2.00;2.00;;;;;;;;5038616;28;45456;-73
2023/07/09 14:24:23;;;;;;;;;1.25;1.25;;;;;;;;5038403;28;45498;-73
2023/07/09 14:26:49;;;;;;;;;1.25;1.25;;;;;;;;5038221;28;45440;-72
2023/07/09 14:29:14;;;;;;;;;1.00;1.00;;;;;;;;5038306;28;45325;-72
2023/07/09 14:31:40;;;;;;;;;3.75;2.00;;;;;;;;5038503;28;45449;-74
2023/07/09 14:34:14;;;;;;;;;4.25;3.00;;;;;;;;5038233;28;45443;-73
2023/07/09 14:36:39;;;;;;;;;2.25;2.25;;;;;;;;5038237;28;45574;-73
2023/07/09 14:39:09;;;;;;;;;1.75;1.75;;;;;;;;5038361;28;45565;-73
2023/07/09 14:41:34;;;;;;;;;2.00;2.00;;;;;;;;5038432;28;45388;-73
2023/07/09 14:43:59;;;;;;;;;2.75;1.50;;;;;;;;5037344;28;45447;-73